sensor_id;sensor_type;location;lat;lon;timestamp;temperature;humidity
18335;DHT22;9293;49.524;10.964;2022-08-11T00:01:25;16.90;98.30
18335;DHT22;9293;49.524;10.964;2022-08-11T00:03:58;16.90;98.50
18335;DHT22;9293;49.524;10.964;2022-08-11T00:06:35;16.70;99.00
18335;DHT22;9293;49.524;10.964;2022-08-11T00:09:10;16.70;99.60
18335;DHT22;9293;49.524;10.964;2022-08-11T00:11:44;16.50;99.90
18335;DHT22;9293;49.524;10.964;2022-08-11T00:16:43;16.40;99.90
18335;DHT22;9293;49.524;10.964;2022-08-11T00:19:25;16.50;99.90
18335;DHT22;9293;49.524;10.964;2022-08-11T00:22:20;16.50;99.90
18335;DHT22;9293;49.524;10.964;2022-08-11T00:24:49;16.30;99.90
18335;DHT22;9293;49.524;10.964;2022-08-11T00:27:34;16.30;99.90
18335;DHT22;9293;49.524;10.964;2022-08-11T00:30:04;16.30;99.90
18335;DHT22;9293;49.524;10.964;2022-08-11T00:32:34;16.30;99.90
18335;DHT22;9293;49.524;10.964;2022-08-11T00:35:07;16.20;99.90
18335;DHT22;9293;49.524;10.964;2022-08-11T00:37:55;16.00;99.90
18335;DHT22;9293;49.524;10.964;2022-08-11T00:40:35;15.90;99.90
18335;DHT22;9293;49.524;10.964;2022-08-11T01:02:16;16.20;99.90
18335;DHT22;9293;49.524;10.964;2022-08-11T01:08:25;16.20;99.90
18335;DHT22;9293;49.524;10.964;2022-08-11T01:29:55;15.90;99.90
18335;DHT22;9293;49.524;10.964;2022-08-11T01:32:05;15.90;99.90
18335;DHT22;9293;49.524;10.964;2022-08-11T01:41:14;15.70;99.90
18335;DHT22;9293;49.524;10.964;2022-08-11T01:44:20;15.80;99.90
18335;DHT22;9293;49.524;10.964;2022-08-11T01:56:36;16.10;99.90
18335;DHT22;9293;49.524;10.964;2022-08-11T01:59:40;16.10;99.90
18335;DHT22;9293;49.524;10.964;2022-08-11T02:05:26;16.20;99.90
18335;DHT22;9293;49.524;10.964;2022-08-11T02:08:33;16.00;99.90
18335;DHT22;9293;49.524;10.964;2022-08-11T02:11:29;15.90;99.90
18335;DHT22;9293;49.524;10.964;2022-08-11T02:14:25;15.80;99.90
18335;DHT22;9293;49.524;10.964;2022-08-11T02:20:06;15.70;99.90
18335;DHT22;9293;49.524;10.964;2022-08-11T02:22:59;15.70;99.90
18335;DHT22;9293;49.524;10.964;2022-08-11T02:26:13;15.70;99.90
18335;DHT22;9293;49.524;10.964;2022-08-11T02:34:51;15.40;99.90
18335;DHT22;9293;49.524;10.964;2022-08-11T02:43:20;15.30;99.90
18335;DHT22;9293;49.524;10.964;2022-08-11T02:52:13;15.30;99.90
18335;DHT22;9293;49.524;10.964;2022-08-11T02:55:01;15.20;99.90
18335;DHT22;9293;49.524;10.964;2022-08-11T02:57:58;15.20;99.90
18335;DHT22;9293;49.524;10.964;2022-08-11T03:01:02;15.00;99.90
18335;DHT22;9293;49.524;10.964;2022-08-11T03:03:39;14.90;99.90
18335;DHT22;9293;49.524;10.964;2022-08-11T03:06:44;14.90;99.90
18335;DHT22;9293;49.524;10.964;2022-08-11T03:09:39;14.90;99.90
18335;DHT22;9293;49.524;10.964;2022-08-11T03:12:24;14.90;99.90
18335;DHT22;9293;49.524;10.964;2022-08-11T03:15:28;14.80;99.90
18335;DHT22;9293;49.524;10.964;2022-08-11T03:21:28;14.70;99.90
18335;DHT22;9293;49.524;10.964;2022-08-11T03:24:24;14.60;99.90
18335;DHT22;9293;49.524;10.964;2022-08-11T03:27:04;14.60;99.90
18335;DHT22;9293;49.524;10.964;2022-08-11T03:29:43;14.60;99.90
18335;DHT22;9293;49.524;10.964;2022-08-11T03:35:41;14.50;99.90
18335;DHT22;9293;49.524;10.964;2022-08-11T03:38:14;14.40;99.90
18335;DHT22;9293;49.524;10.964;2022-08-11T03:41:04;14.40;99.90
18335;DHT22;9293;49.524;10.964;2022-08-11T03:47:33;14.40;99.90
18335;DHT22;9293;49.524;10.964;2022-08-11T04:07:54;14.50;99.90
18335;DHT22;9293;49.524;10.964;2022-08-11T04:13:35;14.60;99.90
18335;DHT22;9293;49.524;10.964;2022-08-11T04:16:15;14.70;99.90
18335;DHT22;9293;49.524;10.964;2022-08-11T04:19:09;14.80;99.90
18335;DHT22;9293;49.524;10.964;2022-08-11T04:36:01;14.70;99.90
18335;DHT22;9293;49.524;10.964;2022-08-11T04:45:06;14.90;99.90
18335;DHT22;9293;49.524;10.964;2022-08-11T04:54:27;14.90;99.90
18335;DHT22;9293;49.524;10.964;2022-08-11T05:00:23;15.00;99.90
18335;DHT22;9293;49.524;10.964;2022-08-11T05:09:48;15.00;99.90
18335;DHT22;9293;49.524;10.964;2022-08-11T05:15:02;15.30;99.90
18335;DHT22;9293;49.524;10.964;2022-08-11T05:18:13;15.30;99.90
18335;DHT22;9293;49.524;10.964;2022-08-11T05:21:07;15.40;99.90
18335;DHT22;9293;49.524;10.964;2022-08-11T05:24:16;15.50;99.90
18335;DHT22;9293;49.524;10.964;2022-08-11T05:27:09;15.70;99.90
18335;DHT22;9293;49.524;10.964;2022-08-11T05:30:07;15.80;99.90
18335;DHT22;9293;49.524;10.964;2022-08-11T05:36:26;16.10;99.90
18335;DHT22;9293;49.524;10.964;2022-08-11T05:38:59;16.30;99.90
18335;DHT22;9293;49.524;10.964;2022-08-11T05:42:04;16.50;99.90
18335;DHT22;9293;49.524;10.964;2022-08-11T05:45:04;16.70;99.90
18335;DHT22;9293;49.524;10.964;2022-08-11T05:48:15;17.00;99.90
18335;DHT22;9293;49.524;10.964;2022-08-11T05:51:01;17.30;99.90
18335;DHT22;9293;49.524;10.964;2022-08-11T05:53:58;17.60;99.90
18335;DHT22;9293;49.524;10.964;2022-08-11T05:56:58;17.90;99.90
18335;DHT22;9293;49.524;10.964;2022-08-11T05:59:28;18.20;99.90
18335;DHT22;9293;49.524;10.964;2022-08-11T06:02:06;18.40;99.90
18335;DHT22;9293;49.524;10.964;2022-08-11T06:04:36;18.60;99.90
18335;DHT22;9293;49.524;10.964;2022-08-11T06:07:07;18.80;99.90
18335;DHT22;9293;49.524;10.964;2022-08-11T06:12:23;19.40;99.90
18335;DHT22;9293;49.524;10.964;2022-08-11T06:14:57;19.90;99.90
18335;DHT22;9293;49.524;10.964;2022-08-11T06:17:29;20.40;99.90
18335;DHT22;9293;49.524;10.964;2022-08-11T06:20:07;20.70;99.90
18335;DHT22;9293;49.524;10.964;2022-08-11T06:22:42;21.00;99.90
18335;DHT22;9293;49.524;10.964;2022-08-11T06:25:16;21.40;99.90
18335;DHT22;9293;49.524;10.964;2022-08-11T06:27:44;22.10;99.90
18335;DHT22;9293;49.524;10.964;2022-08-11T06:30:12;22.50;99.90
18335;DHT22;9293;49.524;10.964;2022-08-11T06:32:44;22.90;99.50
18335;DHT22;9293;49.524;10.964;2022-08-11T06:35:36;23.10;99.10
18335;DHT22;9293;49.524;10.964;2022-08-11T06:38:12;23.10;98.80
18335;DHT22;9293;49.524;10.964;2022-08-11T06:41:06;23.10;98.30
18335;DHT22;9293;49.524;10.964;2022-08-11T06:46:46;23.20;97.70
18335;DHT22;9293;49.524;10.964;2022-08-11T06:49:16;23.40;97.30
18335;DHT22;9293;49.524;10.964;2022-08-11T06:52:11;23.70;97.10
18335;DHT22;9293;49.524;10.964;2022-08-11T06:55:12;24.10;96.20
18335;DHT22;9293;49.524;10.964;2022-08-11T06:58:03;24.20;94.80
18335;DHT22;9293;49.524;10.964;2022-08-11T07:00:54;24.40;94.70
18335;DHT22;9293;49.524;10.964;2022-08-11T07:03:27;24.30;94.40
18335;DHT22;9293;49.524;10.964;2022-08-11T07:06:09;24.50;93.80
18335;DHT22;9293;49.524;10.964;2022-08-11T07:14:52;25.20;93.20
18335;DHT22;9293;49.524;10.964;2022-08-11T07:18:01;25.40;92.20
18335;DHT22;9293;49.524;10.964;2022-08-11T07:20:51;25.60;91.70
18335;DHT22;9293;49.524;10.964;2022-08-11T07:24:08;25.60;91.30
18335;DHT22;9293;49.524;10.964;2022-08-11T07:27:18;25.50;90.90
18335;DHT22;9293;49.524;10.964;2022-08-11T07:30:08;25.90;90.20
18335;DHT22;9293;49.524;10.964;2022-08-11T07:32:47;25.90;89.30
18335;DHT22;9293;49.524;10.964;2022-08-11T07:35:20;25.90;90.20
18335;DHT22;9293;49.524;10.964;2022-08-11T07:38:00;25.90;90.10
18335;DHT22;9293;49.524;10.964;2022-08-11T07:40:34;26.20;90.00
18335;DHT22;9293;49.524;10.964;2022-08-11T07:43:03;26.30;88.60
18335;DHT22;9293;49.524;10.964;2022-08-11T07:45:33;26.40;88.70
18335;DHT22;9293;49.524;10.964;2022-08-11T07:48:23;26.60;86.50
18335;DHT22;9293;49.524;10.964;2022-08-11T07:51:09;26.70;86.30
18335;DHT22;9293;49.524;10.964;2022-08-11T07:53:59;26.80;86.30
18335;DHT22;9293;49.524;10.964;2022-08-11T07:56:43;26.80;85.90
18335;DHT22;9293;49.524;10.964;2022-08-11T07:59:31;27.10;84.20
18335;DHT22;9293;49.524;10.964;2022-08-11T08:02:38;27.20;83.40
18335;DHT22;9293;49.524;10.964;2022-08-11T08:05:25;27.10;83.00
18335;DHT22;9293;49.524;10.964;2022-08-11T08:08:13;27.30;82.20
18335;DHT22;9293;49.524;10.964;2022-08-11T08:11:01;27.50;82.20
18335;DHT22;9293;49.524;10.964;2022-08-11T08:13:54;27.90;81.60
18335;DHT22;9293;49.524;10.964;2022-08-11T08:16:41;27.90;78.70
18335;DHT22;9293;49.524;10.964;2022-08-11T08:19:29;27.90;78.30
18335;DHT22;9293;49.524;10.964;2022-08-11T08:21:58;28.20;77.60
18335;DHT22;9293;49.524;10.964;2022-08-11T08:24:48;28.50;76.30
18335;DHT22;9293;49.524;10.964;2022-08-11T08:27:16;28.60;76.70
18335;DHT22;9293;49.524;10.964;2022-08-11T08:29:45;28.60;74.80
18335;DHT22;9293;49.524;10.964;2022-08-11T08:32:43;28.30;73.20
18335;DHT22;9293;49.524;10.964;2022-08-11T08:35:11;28.10;74.60
18335;DHT22;9293;49.524;10.964;2022-08-11T08:37:40;28.00;74.40
18335;DHT22;9293;49.524;10.964;2022-08-11T08:40:13;28.20;75.90
18335;DHT22;9293;49.524;10.964;2022-08-11T08:42:48;28.40;74.90
18335;DHT22;9293;49.524;10.964;2022-08-11T08:45:18;28.20;74.80
18335;DHT22;9293;49.524;10.964;2022-08-11T08:48:03;28.30;75.10
18335;DHT22;9293;49.524;10.964;2022-08-11T08:50:37;28.40;73.80
18335;DHT22;9293;49.524;10.964;2022-08-11T08:53:33;28.40;73.00
18335;DHT22;9293;49.524;10.964;2022-08-11T08:56:02;28.40;72.50
18335;DHT22;9293;49.524;10.964;2022-08-11T08:58:34;28.40;72.90
18335;DHT22;9293;49.524;10.964;2022-08-11T09:01:03;28.50;72.30
18335;DHT22;9293;49.524;10.964;2022-08-11T09:03:36;28.60;72.80
18335;DHT22;9293;49.524;10.964;2022-08-11T09:06:25;28.80;71.80
18335;DHT22;9293;49.524;10.964;2022-08-11T09:08:54;28.80;69.40
18335;DHT22;9293;49.524;10.964;2022-08-11T09:11:23;28.80;69.80
18335;DHT22;9293;49.524;10.964;2022-08-11T09:14:10;28.70;68.20
18335;DHT22;9293;49.524;10.964;2022-08-11T09:16:41;28.60;69.20
18335;DHT22;9293;49.524;10.964;2022-08-11T09:19:13;29.00;67.70
18335;DHT22;9293;49.524;10.964;2022-08-11T09:21:46;29.00;67.60
18335;DHT22;9293;49.524;10.964;2022-08-11T09:24:38;29.20;67.60
18335;DHT22;9293;49.524;10.964;2022-08-11T09:27:25;29.30;67.90
18335;DHT22;9293;49.524;10.964;2022-08-11T09:29:54;29.30;67.40
18335;DHT22;9293;49.524;10.964;2022-08-11T09:32:23;29.40;65.50
18335;DHT22;9293;49.524;10.964;2022-08-11T09:34:53;29.40;66.50
18335;DHT22;9293;49.524;10.964;2022-08-11T09:37:22;29.10;67.30
18335;DHT22;9293;49.524;10.964;2022-08-11T09:40:23;29.00;67.00
18335;DHT22;9293;49.524;10.964;2022-08-11T09:43:05;29.20;66.60
18335;DHT22;9293;49.524;10.964;2022-08-11T09:45:53;29.30;66.10
18335;DHT22;9293;49.524;10.964;2022-08-11T09:48:24;29.40;65.60
18335;DHT22;9293;49.524;10.964;2022-08-11T09:50:54;29.30;64.90
18335;DHT22;9293;49.524;10.964;2022-08-11T09:53:25;29.10;67.00
18335;DHT22;9293;49.524;10.964;2022-08-11T09:56:12;29.20;65.20
18335;DHT22;9293;49.524;10.964;2022-08-11T09:59:03;29.00;64.80
18335;DHT22;9293;49.524;10.964;2022-08-11T10:02:00;29.20;65.90
18335;DHT22;9293;49.524;10.964;2022-08-11T10:04:41;29.60;66.80
18335;DHT22;9293;49.524;10.964;2022-08-11T10:07:09;29.90;64.60
18335;DHT22;9293;49.524;10.964;2022-08-11T10:09:51;29.90;65.40
18335;DHT22;9293;49.524;10.964;2022-08-11T10:12:33;29.80;63.30
18335;DHT22;9293;49.524;10.964;2022-08-11T10:15:07;29.70;64.00
18335;DHT22;9293;49.524;10.964;2022-08-11T10:18:10;29.60;63.00
18335;DHT22;9293;49.524;10.964;2022-08-11T10:21:05;29.30;64.50
18335;DHT22;9293;49.524;10.964;2022-08-11T10:23:36;29.80;64.80
18335;DHT22;9293;49.524;10.964;2022-08-11T10:26:28;30.20;61.30
18335;DHT22;9293;49.524;10.964;2022-08-11T10:29:46;29.70;61.90
18335;DHT22;9293;49.524;10.964;2022-08-11T10:32:33;29.90;64.20
18335;DHT22;9293;49.524;10.964;2022-08-11T10:35:27;30.40;62.90
18335;DHT22;9293;49.524;10.964;2022-08-11T10:37:56;30.80;61.80
18335;DHT22;9293;49.524;10.964;2022-08-11T10:40:40;30.70;58.20
18335;DHT22;9293;49.524;10.964;2022-08-11T10:43:12;30.60;59.70
18335;DHT22;9293;49.524;10.964;2022-08-11T10:46:01;31.00;60.90
18335;DHT22;9293;49.524;10.964;2022-08-11T10:48:56;31.30;61.20
18335;DHT22;9293;49.524;10.964;2022-08-11T10:51:27;31.80;60.00
18335;DHT22;9293;49.524;10.964;2022-08-11T10:54:20;31.60;58.80
18335;DHT22;9293;49.524;10.964;2022-08-11T10:57:07;31.30;58.90
18335;DHT22;9293;49.524;10.964;2022-08-11T10:59:56;31.30;60.10
18335;DHT22;9293;49.524;10.964;2022-08-11T11:02:24;31.10;60.40
18335;DHT22;9293;49.524;10.964;2022-08-11T11:07:57;31.10;62.60
18335;DHT22;9293;49.524;10.964;2022-08-11T11:10:48;30.90;61.30
18335;DHT22;9293;49.524;10.964;2022-08-11T11:13:17;31.20;60.60
18335;DHT22;9293;49.524;10.964;2022-08-11T11:16:18;31.10;60.00
18335;DHT22;9293;49.524;10.964;2022-08-11T11:19:08;30.80;59.60
18335;DHT22;9293;49.524;10.964;2022-08-11T11:21:37;30.70;59.30
18335;DHT22;9293;49.524;10.964;2022-08-11T11:24:24;30.80;59.30
18335;DHT22;9293;49.524;10.964;2022-08-11T11:27:20;30.60;58.30
18335;DHT22;9293;49.524;10.964;2022-08-11T11:30:06;30.50;58.10
18335;DHT22;9293;49.524;10.964;2022-08-11T11:32:54;30.70;57.90
18335;DHT22;9293;49.524;10.964;2022-08-11T11:35:34;30.80;59.40
18335;DHT22;9293;49.524;10.964;2022-08-11T11:38:07;31.10;57.80
18335;DHT22;9293;49.524;10.964;2022-08-11T11:40:43;31.20;57.30
18335;DHT22;9293;49.524;10.964;2022-08-11T11:43:32;31.00;56.80
18335;DHT22;9293;49.524;10.964;2022-08-11T11:46:02;30.70;56.70
18335;DHT22;9293;49.524;10.964;2022-08-11T11:48:33;31.10;56.30
18335;DHT22;9293;49.524;10.964;2022-08-11T11:51:03;31.10;56.20
18335;DHT22;9293;49.524;10.964;2022-08-11T11:53:32;30.80;56.40
18335;DHT22;9293;49.524;10.964;2022-08-11T11:56:02;30.70;56.60
18335;DHT22;9293;49.524;10.964;2022-08-11T11:58:30;30.70;57.00
18335;DHT22;9293;49.524;10.964;2022-08-11T12:01:17;30.70;57.30
18335;DHT22;9293;49.524;10.964;2022-08-11T12:03:54;30.90;55.50
18335;DHT22;9293;49.524;10.964;2022-08-11T12:06:24;31.10;55.50
18335;DHT22;9293;49.524;10.964;2022-08-11T12:08:57;31.50;54.40
18335;DHT22;9293;49.524;10.964;2022-08-11T12:11:28;31.50;54.00
18335;DHT22;9293;49.524;10.964;2022-08-11T12:14:18;31.60;54.80
18335;DHT22;9293;49.524;10.964;2022-08-11T12:16:47;31.70;55.80
18335;DHT22;9293;49.524;10.964;2022-08-11T12:19:17;31.80;54.70
18335;DHT22;9293;49.524;10.964;2022-08-11T12:21:48;31.60;55.30
18335;DHT22;9293;49.524;10.964;2022-08-11T12:24:39;31.50;55.10
18335;DHT22;9293;49.524;10.964;2022-08-11T12:27:29;31.60;55.00
18335;DHT22;9293;49.524;10.964;2022-08-11T12:30:03;32.00;54.10
18335;DHT22;9293;49.524;10.964;2022-08-11T12:32:38;32.00;53.40
18335;DHT22;9293;49.524;10.964;2022-08-11T12:35:10;32.20;52.50
18335;DHT22;9293;49.524;10.964;2022-08-11T12:37:44;32.10;51.40
18335;DHT22;9293;49.524;10.964;2022-08-11T12:40:18;31.60;51.80
18335;DHT22;9293;49.524;10.964;2022-08-11T12:43:30;31.70;53.30
18335;DHT22;9293;49.524;10.964;2022-08-11T12:46:27;31.80;53.60
18335;DHT22;9293;49.524;10.964;2022-08-11T12:49:11;31.90;54.00
18335;DHT22;9293;49.524;10.964;2022-08-11T12:52:04;32.00;54.10
18335;DHT22;9293;49.524;10.964;2022-08-11T12:54:52;32.10;53.30
18335;DHT22;9293;49.524;10.964;2022-08-11T13:00:58;32.10;53.30
18335;DHT22;9293;49.524;10.964;2022-08-11T13:03:46;32.10;53.10
18335;DHT22;9293;49.524;10.964;2022-08-11T13:06:36;31.90;52.60
18335;DHT22;9293;49.524;10.964;2022-08-11T13:09:15;31.90;54.50
18335;DHT22;9293;49.524;10.964;2022-08-11T13:11:44;32.00;53.60
18335;DHT22;9293;49.524;10.964;2022-08-11T13:14:32;32.00;53.50
18335;DHT22;9293;49.524;10.964;2022-08-11T13:17:05;31.90;52.20
18335;DHT22;9293;49.524;10.964;2022-08-11T13:20:15;31.90;52.20
18335;DHT22;9293;49.524;10.964;2022-08-11T13:23:02;31.70;53.00
18335;DHT22;9293;49.524;10.964;2022-08-11T13:25:45;31.70;53.60
18335;DHT22;9293;49.524;10.964;2022-08-11T13:28:17;31.80;52.90
18335;DHT22;9293;49.524;10.964;2022-08-11T13:30:59;31.80;53.40
18335;DHT22;9293;49.524;10.964;2022-08-11T13:33:56;31.90;53.70
18335;DHT22;9293;49.524;10.964;2022-08-11T13:36:35;31.70;52.80
18335;DHT22;9293;49.524;10.964;2022-08-11T13:39:06;31.60;52.90
18335;DHT22;9293;49.524;10.964;2022-08-11T13:41:35;31.50;52.70
18335;DHT22;9293;49.524;10.964;2022-08-11T13:44:12;31.60;53.70
18335;DHT22;9293;49.524;10.964;2022-08-11T13:46:57;31.80;53.10
18335;DHT22;9293;49.524;10.964;2022-08-11T13:49:30;31.70;52.50
18335;DHT22;9293;49.524;10.964;2022-08-11T13:52:00;31.80;53.10
18335;DHT22;9293;49.524;10.964;2022-08-11T13:54:31;31.70;52.80
18335;DHT22;9293;49.524;10.964;2022-08-11T13:57:07;31.60;53.80
18335;DHT22;9293;49.524;10.964;2022-08-11T14:00:00;31.60;53.90
18335;DHT22;9293;49.524;10.964;2022-08-11T14:02:55;31.90;53.00
18335;DHT22;9293;49.524;10.964;2022-08-11T14:05:37;32.00;54.40
18335;DHT22;9293;49.524;10.964;2022-08-11T14:08:18;32.00;53.60
18335;DHT22;9293;49.524;10.964;2022-08-11T14:11:05;31.60;53.30
18335;DHT22;9293;49.524;10.964;2022-08-11T14:14:20;31.00;53.90
18335;DHT22;9293;49.524;10.964;2022-08-11T14:16:51;30.90;54.50
18335;DHT22;9293;49.524;10.964;2022-08-11T14:19:23;30.90;55.20
18335;DHT22;9293;49.524;10.964;2022-08-11T14:21:54;31.10;55.00
18335;DHT22;9293;49.524;10.964;2022-08-11T14:24:39;31.20;54.70
18335;DHT22;9293;49.524;10.964;2022-08-11T14:27:12;31.10;55.30
18335;DHT22;9293;49.524;10.964;2022-08-11T14:30:02;31.30;53.50
18335;DHT22;9293;49.524;10.964;2022-08-11T14:32:31;31.40;53.20
18335;DHT22;9293;49.524;10.964;2022-08-11T14:35:19;31.30;54.10
18335;DHT22;9293;49.524;10.964;2022-08-11T14:37:47;31.40;54.60
18335;DHT22;9293;49.524;10.964;2022-08-11T14:40:15;31.40;54.10
18335;DHT22;9293;49.524;10.964;2022-08-11T14:43:06;31.50;54.00
18335;DHT22;9293;49.524;10.964;2022-08-11T14:46:13;31.40;53.90
18335;DHT22;9293;49.524;10.964;2022-08-11T14:49:18;31.10;54.30
18335;DHT22;9293;49.524;10.964;2022-08-11T14:51:47;30.90;54.90
18335;DHT22;9293;49.524;10.964;2022-08-11T14:54:16;31.00;55.20
18335;DHT22;9293;49.524;10.964;2022-08-11T14:57:03;31.10;53.50
18335;DHT22;9293;49.524;10.964;2022-08-11T14:59:31;31.10;54.50
18335;DHT22;9293;49.524;10.964;2022-08-11T15:02:02;31.10;53.80
18335;DHT22;9293;49.524;10.964;2022-08-11T15:04:50;31.10;53.70
18335;DHT22;9293;49.524;10.964;2022-08-11T15:07:18;31.20;54.20
18335;DHT22;9293;49.524;10.964;2022-08-11T15:10:05;31.20;53.80
18335;DHT22;9293;49.524;10.964;2022-08-11T15:12:39;31.00;53.40
18335;DHT22;9293;49.524;10.964;2022-08-11T15:15:11;30.80;53.90
18335;DHT22;9293;49.524;10.964;2022-08-11T15:18:00;31.00;54.70
18335;DHT22;9293;49.524;10.964;2022-08-11T15:20:29;31.20;53.80
18335;DHT22;9293;49.524;10.964;2022-08-11T15:23:20;31.40;52.90
18335;DHT22;9293;49.524;10.964;2022-08-11T15:26:32;31.50;53.30
18335;DHT22;9293;49.524;10.964;2022-08-11T15:29:21;31.70;53.50
18335;DHT22;9293;49.524;10.964;2022-08-11T15:32:12;31.70;53.70
18335;DHT22;9293;49.524;10.964;2022-08-11T15:34:57;31.70;53.30
18335;DHT22;9293;49.524;10.964;2022-08-11T15:37:45;31.50;52.00
18335;DHT22;9293;49.524;10.964;2022-08-11T15:40:26;31.50;52.70
18335;DHT22;9293;49.524;10.964;2022-08-11T15:43:21;31.50;52.70
18335;DHT22;9293;49.524;10.964;2022-08-11T15:46:25;31.30;53.50
18335;DHT22;9293;49.524;10.964;2022-08-11T15:49:47;31.30;53.40
18335;DHT22;9293;49.524;10.964;2022-08-11T15:52:34;31.20;53.50
18335;DHT22;9293;49.524;10.964;2022-08-11T15:55:10;31.10;54.00
18335;DHT22;9293;49.524;10.964;2022-08-11T15:57:39;30.80;53.50
18335;DHT22;9293;49.524;10.964;2022-08-11T16:00:27;30.60;54.40
18335;DHT22;9293;49.524;10.964;2022-08-11T16:03:20;30.30;54.60
18335;DHT22;9293;49.524;10.964;2022-08-11T16:06:30;30.10;56.00
18335;DHT22;9293;49.524;10.964;2022-08-11T16:09:01;30.00;55.90
18335;DHT22;9293;49.524;10.964;2022-08-11T16:11:45;29.80;56.20
18335;DHT22;9293;49.524;10.964;2022-08-11T16:14:15;29.70;56.40
18335;DHT22;9293;49.524;10.964;2022-08-11T16:17:05;29.60;56.30
18335;DHT22;9293;49.524;10.964;2022-08-11T16:19:33;29.50;56.80
18335;DHT22;9293;49.524;10.964;2022-08-11T16:22:08;29.50;56.60
18335;DHT22;9293;49.524;10.964;2022-08-11T16:24:43;29.30;56.90
18335;DHT22;9293;49.524;10.964;2022-08-11T16:27:45;29.20;57.10
18335;DHT22;9293;49.524;10.964;2022-08-11T16:30:14;29.00;57.20
18335;DHT22;9293;49.524;10.964;2022-08-11T16:32:48;29.00;57.70
18335;DHT22;9293;49.524;10.964;2022-08-11T16:35:24;29.00;57.40
18335;DHT22;9293;49.524;10.964;2022-08-11T16:38:12;28.90;57.50
18335;DHT22;9293;49.524;10.964;2022-08-11T16:41:12;28.80;57.20
18335;DHT22;9293;49.524;10.964;2022-08-11T16:43:45;28.70;57.40
18335;DHT22;9293;49.524;10.964;2022-08-11T16:46:32;28.70;57.70
18335;DHT22;9293;49.524;10.964;2022-08-11T16:49:33;28.70;57.70
18335;DHT22;9293;49.524;10.964;2022-08-11T16:52:05;28.80;58.40
18335;DHT22;9293;49.524;10.964;2022-08-11T16:54:38;28.70;57.80
18335;DHT22;9293;49.524;10.964;2022-08-11T16:57:21;28.60;57.90
18335;DHT22;9293;49.524;10.964;2022-08-11T17:00:11;28.60;58.00
18335;DHT22;9293;49.524;10.964;2022-08-11T17:02:52;28.60;58.20
18335;DHT22;9293;49.524;10.964;2022-08-11T17:05:44;28.50;57.80
18335;DHT22;9293;49.524;10.964;2022-08-11T17:08:45;28.50;57.90
18335;DHT22;9293;49.524;10.964;2022-08-11T17:11:38;28.50;57.90
18335;DHT22;9293;49.524;10.964;2022-08-11T17:14:35;28.40;57.80
18335;DHT22;9293;49.524;10.964;2022-08-11T17:17:06;28.40;57.60
18335;DHT22;9293;49.524;10.964;2022-08-11T17:19:37;28.30;57.70
18335;DHT22;9293;49.524;10.964;2022-08-11T17:22:29;28.30;58.40
18335;DHT22;9293;49.524;10.964;2022-08-11T17:25:17;28.20;58.50
18335;DHT22;9293;49.524;10.964;2022-08-11T17:27:47;28.10;58.90
18335;DHT22;9293;49.524;10.964;2022-08-11T17:30:17;28.10;59.10
18335;DHT22;9293;49.524;10.964;2022-08-11T17:32:53;28.10;59.00
18335;DHT22;9293;49.524;10.964;2022-08-11T17:35:41;28.10;59.40
18335;DHT22;9293;49.524;10.964;2022-08-11T17:38:13;28.00;60.10
18335;DHT22;9293;49.524;10.964;2022-08-11T17:40:50;28.00;59.90
18335;DHT22;9293;49.524;10.964;2022-08-11T17:43:50;27.90;59.60
18335;DHT22;9293;49.524;10.964;2022-08-11T17:46:39;27.80;59.00
18335;DHT22;9293;49.524;10.964;2022-08-11T17:49:33;27.70;59.50
18335;DHT22;9293;49.524;10.964;2022-08-11T17:52:06;27.70;60.40
18335;DHT22;9293;49.524;10.964;2022-08-11T17:54:56;27.70;59.40
18335;DHT22;9293;49.524;10.964;2022-08-11T17:58:03;27.60;58.30
18335;DHT22;9293;49.524;10.964;2022-08-11T18:00:50;27.50;58.40
18335;DHT22;9293;49.524;10.964;2022-08-11T18:03:22;27.40;58.20
18335;DHT22;9293;49.524;10.964;2022-08-11T18:06:02;27.30;58.40
18335;DHT22;9293;49.524;10.964;2022-08-11T18:08:32;27.30;58.60
18335;DHT22;9293;49.524;10.964;2022-08-11T18:11:21;27.20;58.80
18335;DHT22;9293;49.524;10.964;2022-08-11T18:14:32;27.20;58.90
18335;DHT22;9293;49.524;10.964;2022-08-11T18:17:19;27.10;59.50
18335;DHT22;9293;49.524;10.964;2022-08-11T18:20:07;27.10;59.20
18335;DHT22;9293;49.524;10.964;2022-08-11T18:22:54;27.00;59.50
18335;DHT22;9293;49.524;10.964;2022-08-11T18:25:44;26.80;59.50
18335;DHT22;9293;49.524;10.964;2022-08-11T18:28:42;26.70;61.10
18335;DHT22;9293;49.524;10.964;2022-08-11T18:31:33;26.60;60.90
18335;DHT22;9293;49.524;10.964;2022-08-11T18:34:31;26.50;61.90
18335;DHT22;9293;49.524;10.964;2022-08-11T18:37:26;26.50;63.60
18335;DHT22;9293;49.524;10.964;2022-08-11T18:40:16;26.40;62.80
18335;DHT22;9293;49.524;10.964;2022-08-11T18:43:06;26.30;63.20
18335;DHT22;9293;49.524;10.964;2022-08-11T18:46:01;26.10;63.80
18335;DHT22;9293;49.524;10.964;2022-08-11T18:48:58;26.00;64.10
18335;DHT22;9293;49.524;10.964;2022-08-11T18:51:54;25.90;64.10
18335;DHT22;9293;49.524;10.964;2022-08-11T18:54:43;25.90;64.50
18335;DHT22;9293;49.524;10.964;2022-08-11T18:57:37;25.80;64.90
18335;DHT22;9293;49.524;10.964;2022-08-11T19:00:30;25.80;64.70
18335;DHT22;9293;49.524;10.964;2022-08-11T19:03:18;25.70;65.10
18335;DHT22;9293;49.524;10.964;2022-08-11T19:06:17;25.70;65.10
18335;DHT22;9293;49.524;10.964;2022-08-11T19:09:12;25.60;65.00
18335;DHT22;9293;49.524;10.964;2022-08-11T19:12:00;25.50;65.10
18335;DHT22;9293;49.524;10.964;2022-08-11T19:14:48;25.50;65.70
18335;DHT22;9293;49.524;10.964;2022-08-11T19:17:41;25.40;65.50
18335;DHT22;9293;49.524;10.964;2022-08-11T19:20:30;25.30;66.00
18335;DHT22;9293;49.524;10.964;2022-08-11T19:23:28;25.30;65.80
18335;DHT22;9293;49.524;10.964;2022-08-11T19:26:17;25.20;66.30
18335;DHT22;9293;49.524;10.964;2022-08-11T19:29:06;25.10;66.20
18335;DHT22;9293;49.524;10.964;2022-08-11T19:32:14;25.10;66.40
18335;DHT22;9293;49.524;10.964;2022-08-11T19:35:03;25.00;66.80
18335;DHT22;9293;49.524;10.964;2022-08-11T19:37:50;24.90;67.30
18335;DHT22;9293;49.524;10.964;2022-08-11T19:40:38;24.90;68.00
18335;DHT22;9293;49.524;10.964;2022-08-11T19:43:28;24.80;68.80
18335;DHT22;9293;49.524;10.964;2022-08-11T19:46:18;24.70;69.40
18335;DHT22;9293;49.524;10.964;2022-08-11T19:49:05;24.50;70.80
18335;DHT22;9293;49.524;10.964;2022-08-11T19:51:56;24.30;71.80
18335;DHT22;9293;49.524;10.964;2022-08-11T19:54:43;24.20;72.40
18335;DHT22;9293;49.524;10.964;2022-08-11T19:57:31;24.10;72.00
18335;DHT22;9293;49.524;10.964;2022-08-11T20:00:22;24.00;71.00
18335;DHT22;9293;49.524;10.964;2022-08-11T20:03:11;23.90;71.00
18335;DHT22;9293;49.524;10.964;2022-08-11T20:06:02;23.80;71.30
18335;DHT22;9293;49.524;10.964;2022-08-11T20:08:51;23.70;70.90
18335;DHT22;9293;49.524;10.964;2022-08-11T20:11:42;23.60;71.00